Pathfork, Kentucky
Current Conditions -  °F | °C
As of 12:55 AM on Monday 20 Oct 2014 (Local Time) from KI35 Reporting Station
Overcast Overcast  
Wind Chill: 43°   Ceiling: 100
Heat Index: 43°   Visibility: 1mi
Dew Point: 43°   Wind: 0mph
Humidity: 100%   Direction: NA
Pressure: 30.11"   Gusts: NA
Location:  36.76°N, 83.46°W
Report Text: KI35 200455Z AUTO 00000KT 1SM OVC001 06/06 A3011 RMK AO1
Loading
Personal Weather Stations






























Interactive Weather Map
Tropical Storm Tracking
New forecast layout! Learn more

10-Day Weather Forecast

Advertisements
Track Severe Weather on mobile